createdAt,value
2019-03-28T00:00:10.905Z,30.87
2019-03-28T00:02:40.324Z,32.10
2019-03-28T00:05:10.282Z,25.57
2019-03-28T00:07:39.691Z,30.47
2019-03-28T00:10:10.020Z,28.57
2019-03-28T00:12:40.119Z,29.13
2019-03-28T00:15:09.776Z,30.53
2019-03-28T00:17:39.317Z,29.00
2019-03-28T00:20:09.173Z,29.80
2019-03-28T00:22:42.891Z,26.47
2019-03-28T00:25:23.190Z,27.13
2019-03-28T00:27:52.602Z,29.83
2019-03-28T00:30:22.355Z,31.50
2019-03-28T00:32:52.332Z,30.87
2019-03-28T00:35:21.759Z,30.63
2019-03-28T00:37:51.247Z,31.40
2019-03-28T00:40:20.713Z,29.57
2019-03-28T00:42:50.141Z,25.93
2019-03-28T00:45:19.547Z,30.17
2019-03-28T00:47:48.971Z,30.80
2019-03-28T00:50:18.443Z,33.37
2019-03-28T00:52:47.876Z,27.37
2019-03-28T00:55:17.279Z,34.67
2019-03-28T00:57:46.702Z,31.13
2019-03-28T01:00:17.155Z,31.63
2019-03-28T01:02:46.598Z,32.40
2019-03-28T01:05:17.145Z,31.53
2019-03-28T01:07:47.224Z,31.53
2019-03-28T01:10:16.752Z,31.37
2019-03-28T01:12:46.179Z,33.37
2019-03-28T01:15:15.580Z,31.53
2019-03-28T01:17:45.013Z,31.60
2019-03-28T01:20:14.625Z,32.27
2019-03-28T01:22:44.063Z,34.90
2019-03-28T01:25:13.486Z,29.77
2019-03-28T01:27:42.909Z,35.47
2019-03-28T01:30:12.653Z,36.90
2019-03-28T01:32:42.086Z,33.47
2019-03-28T01:35:11.497Z,30.97
2019-03-28T01:37:40.922Z,33.33
2019-03-28T01:40:10.564Z,35.00
2019-03-28T01:42:40.008Z,37.37
2019-03-28T01:45:09.756Z,38.83
2019-03-28T01:47:39.306Z,35.70
2019-03-28T01:50:09.309Z,36.70
2019-03-28T01:52:38.734Z,32.70
2019-03-28T01:55:08.677Z,30.20
2019-03-28T01:57:38.247Z,32.37
2019-03-28T02:00:10.245Z,35.70
2019-03-28T02:02:39.665Z,32.73
2019-03-28T02:05:09.179Z,35.87
2019-03-28T02:07:38.604Z,32.83
2019-03-28T02:10:08.444Z,37.37
2019-03-28T02:12:37.901Z,38.23
2019-03-28T02:15:09.350Z,38.20
2019-03-28T02:17:38.775Z,39.87
2019-03-28T02:20:10.291Z,37.37
2019-03-28T02:22:39.929Z,40.03
2019-03-28T02:25:09.591Z,33.87
2019-03-28T02:27:39.030Z,37.93
2019-03-28T02:30:09.187Z,35.30
2019-03-28T02:32:38.653Z,40.13
2019-03-28T02:35:08.209Z,39.30
2019-03-28T02:37:37.631Z,35.87
2019-03-28T02:40:07.830Z,39.97
2019-03-28T02:42:37.222Z,36.87
2019-03-28T02:45:08.261Z,42.23
2019-03-28T02:47:37.765Z,41.10
2019-03-28T02:50:07.515Z,42.10
2019-03-28T02:52:36.931Z,41.87
2019-03-28T02:55:07.581Z,43.43
2019-03-28T02:57:41.793Z,38.90
2019-03-28T03:00:08.560Z,39.53
2019-03-28T03:02:37.971Z,42.80
2019-03-28T03:05:08.453Z,43.87
2019-03-28T03:07:37.843Z,43.30
2019-03-28T03:10:08.108Z,36.83
2019-03-28T03:12:37.513Z,46.03
2019-03-28T03:15:07.582Z,44.40
2019-03-28T03:17:36.992Z,41.70
2019-03-28T03:20:07.460Z,43.17
2019-03-28T03:22:36.910Z,43.57
2019-03-28T03:25:08.648Z,44.03
2019-03-28T03:27:38.311Z,42.10
2019-03-28T03:30:09.484Z,47.30
2019-03-28T03:32:38.959Z,40.97
2019-03-28T03:35:08.716Z,40.93
2019-03-28T03:37:38.109Z,42.50
2019-03-28T03:40:08.785Z,43.90
2019-03-28T03:42:38.180Z,43.00
2019-03-28T03:45:09.343Z,40.83
2019-03-28T03:47:39.039Z,39.33
2019-03-28T03:50:09.386Z,44.87
2019-03-28T03:52:38.894Z,43.43
2019-03-28T03:55:08.665Z,41.53
2019-03-28T03:57:38.067Z,42.20
2019-03-28T04:00:09.462Z,44.17
2019-03-28T04:02:38.843Z,46.73
2019-03-28T04:05:08.709Z,48.37
2019-03-28T04:07:38.123Z,50.30
2019-03-28T04:10:07.889Z,46.63
2019-03-28T04:12:37.290Z,44.30
2019-03-28T04:15:06.790Z,47.60
2019-03-28T04:17:36.215Z,53.77
2019-03-28T04:20:07.173Z,50.27
2019-03-28T04:22:37.148Z,45.20
2019-03-28T04:25:07.188Z,51.33
2019-03-28T04:27:36.582Z,46.83
2019-03-28T04:30:08.124Z,44.23
2019-03-28T04:32:37.580Z,46.30
2019-03-28T04:35:07.264Z,47.97
2019-03-28T04:37:36.672Z,49.83
2019-03-28T04:40:08.781Z,47.03
2019-03-28T04:42:38.313Z,47.27
2019-03-28T04:45:07.947Z,46.87
2019-03-28T04:47:37.320Z,47.13
2019-03-28T04:50:07.491Z,49.80
2019-03-28T04:52:36.920Z,45.37
2019-03-28T04:55:07.995Z,41.57
2019-03-28T04:57:37.473Z,44.17
2019-03-28T05:00:08.143Z,44.50
2019-03-28T05:02:37.541Z,42.50
2019-03-28T05:05:07.700Z,48.87
2019-03-28T05:07:37.106Z,53.13
2019-03-28T05:10:08.675Z,47.83
2019-03-28T05:12:38.079Z,48.33
2019-03-28T05:15:09.061Z,51.63
2019-03-28T05:17:38.535Z,51.93
2019-03-28T05:20:13.037Z,51.00
2019-03-28T05:22:41.385Z,50.27
2019-03-28T05:25:11.060Z,47.57
2019-03-28T05:27:40.476Z,54.33
2019-03-28T05:30:10.939Z,54.67
2019-03-28T05:32:40.350Z,57.63
2019-03-28T05:35:10.214Z,51.23
2019-03-28T05:37:39.682Z,49.17
2019-03-28T05:40:09.605Z,53.37
2019-03-28T05:42:39.002Z,50.57
2019-03-28T05:45:08.679Z,49.17
2019-03-28T05:47:38.096Z,50.67
2019-03-28T05:50:07.759Z,50.70
2019-03-28T05:52:37.160Z,46.33
2019-03-28T05:55:07.362Z,52.47
2019-03-28T05:57:36.850Z,52.00
2019-03-28T06:00:09.419Z,48.77
2019-03-28T06:02:38.880Z,47.27
2019-03-28T06:05:08.746Z,44.13
2019-03-28T06:07:38.150Z,47.90
2019-03-28T06:10:09.123Z,50.40
2019-03-28T06:12:38.535Z,46.67
2019-03-28T06:15:08.836Z,43.30
2019-03-28T06:17:38.258Z,45.90
2019-03-28T06:20:11.447Z,46.40
2019-03-28T06:22:40.870Z,45.37
2019-03-28T06:25:10.373Z,41.83
2019-03-28T06:27:39.803Z,40.90
2019-03-28T06:30:10.149Z,42.97
2019-03-28T06:32:43.307Z,36.83
2019-03-28T06:35:11.008Z,36.43
2019-03-28T06:37:40.438Z,37.10
2019-03-28T06:40:10.100Z,36.07
2019-03-28T06:42:39.525Z,41.53
2019-03-28T06:45:09.285Z,41.80
2019-03-28T06:47:38.793Z,44.50
2019-03-28T06:50:10.805Z,44.33
2019-03-28T06:52:40.310Z,38.57
2019-03-28T06:55:09.973Z,44.03
2019-03-28T06:57:39.415Z,43.83
2019-03-28T07:00:10.082Z,42.70
2019-03-28T07:02:40.048Z,41.50
2019-03-28T07:05:10.876Z,40.33
2019-03-28T07:07:40.867Z,42.10
2019-03-28T07:10:11.222Z,36.07
2019-03-28T07:12:42.085Z,39.73
2019-03-28T07:15:14.065Z,36.10
2019-03-28T07:17:43.739Z,37.47
2019-03-28T07:20:13.715Z,31.87
2019-03-28T07:22:45.853Z,36.93
2019-03-28T07:25:14.401Z,38.00
2019-03-28T07:27:43.830Z,33.60
2019-03-28T07:30:15.383Z,36.70
2019-03-28T07:32:44.878Z,38.33
2019-03-28T07:35:14.447Z,34.23
2019-03-28T07:37:43.864Z,34.03
2019-03-28T07:40:14.243Z,35.50
2019-03-28T07:42:43.691Z,30.27
2019-03-28T07:45:13.506Z,36.33
2019-03-28T07:47:42.947Z,32.47
2019-03-28T07:50:13.401Z,31.87
2019-03-28T07:52:42.849Z,32.33
2019-03-28T07:55:12.609Z,27.73
2019-03-28T07:57:42.075Z,28.87
2019-03-28T08:00:12.643Z,31.20
2019-03-28T08:02:42.157Z,31.23
2019-03-28T08:05:13.333Z,30.05
2019-03-28T08:07:47.117Z,31.85
2019-03-28T08:10:17.288Z,30.75
2019-03-28T08:12:46.717Z,32.15
2019-03-28T08:15:16.570Z,33.67
2019-03-28T08:17:46.004Z,26.82
2019-03-28T08:20:15.991Z,25.08
2019-03-28T08:22:45.455Z,29.42
2019-03-28T08:25:15.111Z,22.87
2019-03-28T08:27:44.565Z,23.00
2019-03-28T08:30:41.303Z,25.52
2019-03-28T08:33:14.092Z,26.83
2019-03-28T08:35:43.574Z,25.40
2019-03-28T08:38:13.269Z,28.47
2019-03-28T08:40:43.919Z,24.40
2019-03-28T08:43:13.482Z,21.43
2019-03-28T08:45:42.901Z,21.23
2019-03-28T08:48:12.347Z,22.77
2019-03-28T08:50:41.756Z,19.53
2019-03-28T08:53:11.206Z,17.47
2019-03-28T08:55:40.610Z,18.73
2019-03-28T08:58:10.117Z,18.62
2019-03-28T09:00:51.480Z,16.77
2019-03-28T09:03:10.766Z,19.67
2019-03-28T09:05:40.180Z,16.05
2019-03-28T09:08:09.624Z,20.25
2019-03-28T09:10:39.159Z,17.25
2019-03-28T09:13:08.598Z,17.17
2019-03-28T09:15:43.982Z,16.10
2019-03-28T09:18:17.359Z,18.00
2019-03-28T09:20:46.789Z,14.05
2019-03-28T09:23:16.236Z,15.50
2019-03-28T09:25:45.912Z,15.50
2019-03-28T09:28:15.370Z,18.27
2019-03-28T09:30:49.410Z,16.60
2019-03-28T09:33:16.399Z,18.02
2019-03-28T09:35:46.006Z,18.00
2019-03-28T09:38:15.617Z,14.43
2019-03-28T09:40:45.203Z,16.73
2019-03-28T09:43:14.628Z,13.55
2019-03-28T09:45:44.094Z,14.20
2019-03-28T09:48:13.528Z,16.35
2019-03-28T09:50:42.943Z,15.13
2019-03-28T09:53:12.455Z,16.25
2019-03-28T09:55:41.891Z,17.40
2019-03-28T09:58:11.311Z,14.13
2019-03-28T10:00:40.867Z,15.35
2019-03-28T10:03:10.450Z,14.85
2019-03-28T10:05:39.861Z,15.70
2019-03-28T10:08:09.293Z,13.78
2019-03-28T10:10:38.695Z,13.08
2019-03-28T10:13:08.166Z,12.53
2019-03-28T10:15:37.666Z,13.08
2019-03-28T10:18:07.074Z,13.60
2019-03-28T10:20:36.563Z,15.18
2019-03-28T10:23:06.037Z,14.20
2019-03-28T10:25:35.459Z,13.08
2019-03-28T10:28:05.041Z,11.28
2019-03-28T10:30:39.780Z,12.07
2019-03-28T10:33:16.223Z,12.55
2019-03-28T10:35:46.279Z,12.13
2019-03-28T10:38:15.787Z,16.02
2019-03-28T10:40:45.206Z,12.30
2019-03-28T10:43:14.620Z,11.20
2019-03-28T10:45:44.120Z,13.50
2019-03-28T10:48:13.541Z,12.25
2019-03-28T10:50:45.838Z,10.30
2019-03-28T10:53:14.122Z,12.10
2019-03-28T10:55:43.548Z,12.33
2019-03-28T10:58:18.575Z,11.30
2019-03-28T11:00:44.075Z,10.88
2019-03-28T11:03:13.483Z,12.82
2019-03-28T11:05:42.915Z,13.72
2019-03-28T11:08:12.310Z,12.73
2019-03-28T11:10:41.724Z,11.35
2019-03-28T11:13:11.133Z,10.23
2019-03-28T11:15:40.560Z,10.32
2019-03-28T11:18:09.972Z,11.12
2019-03-28T11:20:40.138Z,11.00
2019-03-28T11:23:09.755Z,12.18
2019-03-28T11:25:39.348Z,10.43
2019-03-28T11:28:08.787Z,12.40
2019-03-28T11:30:39.534Z,11.73
2019-03-28T11:33:09.015Z,13.08
2019-03-28T11:35:38.473Z,11.48
2019-03-28T11:38:09.579Z,12.40
2019-03-28T11:40:42.473Z,13.30
2019-03-28T11:43:10.187Z,12.82
2019-03-28T11:45:39.607Z,10.80
2019-03-28T11:48:09.007Z,11.85
2019-03-28T11:50:38.436Z,12.18
2019-03-28T11:53:07.832Z,13.58
2019-03-28T11:55:37.266Z,11.68
2019-03-28T11:58:06.689Z,12.60
2019-03-28T12:00:36.209Z,11.35
2019-03-28T12:03:05.626Z,7.87
2019-03-28T12:05:35.049Z,10.78
2019-03-28T12:08:04.520Z,8.40
2019-03-28T12:10:34.035Z,9.33
2019-03-28T12:13:03.709Z,9.73
2019-03-28T12:15:33.133Z,11.33
2019-03-28T12:18:02.542Z,10.43
2019-03-28T12:20:32.207Z,11.08
2019-03-28T12:23:01.571Z,8.90
2019-03-28T12:25:31.002Z,7.42
2019-03-28T12:28:00.657Z,8.80
2019-03-28T12:30:30.177Z,10.63
2019-03-28T12:32:59.579Z,11.33
2019-03-28T12:35:28.999Z,10.35
2019-03-28T12:37:58.415Z,10.55
2019-03-28T12:40:27.842Z,7.73
2019-03-28T12:42:57.265Z,7.57
2019-03-28T12:45:26.798Z,9.33
2019-03-28T12:47:56.219Z,11.40
2019-03-28T12:50:25.640Z,7.10
2019-03-28T12:52:58.167Z,8.77
2019-03-28T12:55:26.252Z,10.00
2019-03-28T12:57:56.692Z,8.73
2019-03-28T13:00:36.286Z,8.40
2019-03-28T13:03:05.689Z,8.80
2019-03-28T13:05:35.570Z,7.57
2019-03-28T13:08:05.148Z,10.53
2019-03-28T13:10:34.807Z,10.43
2019-03-28T13:13:04.318Z,9.60
2019-03-28T13:15:33.796Z,10.27
2019-03-28T13:18:03.195Z,9.67
2019-03-28T13:20:32.632Z,9.87
2019-03-28T13:23:02.065Z,10.53
2019-03-28T13:25:31.465Z,9.00
2019-03-28T13:28:00.863Z,8.43
2019-03-28T13:30:30.360Z,9.10
2019-03-28T13:32:59.770Z,10.90
2019-03-28T13:35:29.192Z,11.57
2019-03-28T13:37:58.598Z,10.40
2019-03-28T13:40:28.011Z,13.13
2019-03-28T13:42:57.416Z,12.03
2019-03-28T13:45:26.867Z,14.23
2019-03-28T13:47:56.262Z,11.00
2019-03-28T13:50:25.772Z,14.13
2019-03-28T13:52:55.193Z,12.10
2019-03-28T13:55:24.627Z,11.27
2019-03-28T13:57:54.023Z,10.53
2019-03-28T14:00:31.321Z,10.43
2019-03-28T14:03:00.761Z,11.20
2019-03-28T14:05:30.172Z,13.43
2019-03-28T14:07:59.569Z,11.60
2019-03-28T14:10:29.079Z,11.07
2019-03-28T14:12:58.481Z,14.43
2019-03-28T14:15:27.985Z,13.30
2019-03-28T14:17:57.387Z,13.43
2019-03-28T14:20:26.828Z,10.73
2019-03-28T14:22:56.302Z,11.80
2019-03-28T14:25:25.803Z,12.10
2019-03-28T14:27:55.281Z,11.93
2019-03-28T14:30:24.816Z,12.33
2019-03-28T14:32:55.414Z,11.00
2019-03-28T14:35:25.459Z,12.13
2019-03-28T14:37:54.865Z,11.33
2019-03-28T14:40:24.471Z,10.27
2019-03-28T14:42:53.875Z,11.23
2019-03-28T14:45:23.283Z,11.70
2019-03-28T14:47:52.716Z,11.17
2019-03-28T14:50:31.249Z,11.33
2019-03-28T14:53:01.065Z,9.70
2019-03-28T14:55:31.238Z,10.33
2019-03-28T14:58:01.272Z,12.03
2019-03-28T15:00:51.342Z,9.90
2019-03-28T15:03:26.070Z,8.93
2019-03-28T15:05:51.982Z,9.23
2019-03-28T15:08:21.398Z,9.73
2019-03-28T15:10:50.808Z,8.87
2019-03-28T15:13:20.204Z,9.17
2019-03-28T15:15:49.699Z,8.07
2019-03-28T15:18:19.155Z,8.77
2019-03-28T15:20:48.561Z,8.40
2019-03-28T15:23:17.963Z,8.87
2019-03-28T15:25:47.379Z,9.53
2019-03-28T15:28:16.779Z,7.70
2019-03-28T15:30:46.611Z,7.20
2019-03-28T15:33:16.012Z,10.23
2019-03-28T15:35:45.430Z,8.23
2019-03-28T15:38:14.890Z,8.93
2019-03-28T15:40:44.564Z,8.13
2019-03-28T15:43:13.928Z,7.63
2019-03-28T15:45:43.436Z,7.37
2019-03-28T15:48:12.900Z,7.53
2019-03-28T15:50:42.308Z,7.67
2019-03-28T15:53:11.696Z,6.90
2019-03-28T15:55:41.120Z,7.50
2019-03-28T15:58:22.606Z,10.73
2019-03-28T16:00:41.899Z,9.40
2019-03-28T16:03:11.400Z,10.50
2019-03-28T16:05:40.814Z,8.83
2019-03-28T16:08:10.214Z,8.53
2019-03-28T16:10:39.634Z,9.83
2019-03-28T16:13:09.030Z,10.20
2019-03-28T16:15:38.431Z,8.23
2019-03-28T16:18:07.839Z,9.47
2019-03-28T16:20:37.245Z,9.57
2019-03-28T16:23:06.677Z,12.70
2019-03-28T16:25:36.121Z,8.43
2019-03-28T16:28:05.584Z,8.63
2019-03-28T16:30:36.931Z,9.03
2019-03-28T16:33:06.659Z,8.50
2019-03-28T16:35:36.076Z,8.30
2019-03-28T16:38:05.545Z,9.87
2019-03-28T16:40:34.951Z,8.10
2019-03-28T16:43:04.385Z,6.57
2019-03-28T16:45:33.823Z,7.27
2019-03-28T16:48:03.207Z,7.10
2019-03-28T16:50:32.631Z,6.77
2019-03-28T16:53:02.030Z,8.53
2019-03-28T16:55:31.437Z,8.27
2019-03-28T16:58:00.898Z,9.20
2019-03-28T17:00:35.276Z,7.03
2019-03-28T17:03:05.704Z,8.53
2019-03-28T17:05:35.403Z,11.83
2019-03-28T17:08:05.161Z,6.37
2019-03-28T17:10:47.868Z,6.07
2019-03-28T17:13:17.343Z,6.50
2019-03-28T17:15:46.966Z,5.03
2019-03-28T17:18:18.596Z,5.47
2019-03-28T17:20:47.760Z,6.13
2019-03-28T17:23:17.337Z,4.83
2019-03-28T17:25:47.172Z,5.60
2019-03-28T17:28:16.715Z,5.67
2019-03-28T17:30:46.274Z,6.97
2019-03-28T17:33:17.817Z,7.33
2019-03-28T17:35:47.130Z,6.50
2019-03-28T17:38:17.055Z,5.97
2019-03-28T17:40:46.532Z,6.83
2019-03-28T17:43:16.127Z,8.37
2019-03-28T17:45:45.595Z,7.50
2019-03-28T17:48:15.000Z,7.47
2019-03-28T17:50:44.486Z,7.33
2019-03-28T17:53:13.947Z,14.63
2019-03-28T17:55:43.620Z,18.27
2019-03-28T17:58:13.022Z,8.50
2019-03-28T18:00:44.067Z,7.80
2019-03-28T18:03:13.530Z,8.23
2019-03-28T18:05:43.037Z,8.80
2019-03-28T18:08:12.443Z,9.07
2019-03-28T18:10:41.840Z,7.10
2019-03-28T18:13:11.260Z,7.57
2019-03-28T18:15:41.389Z,9.77
2019-03-28T18:18:12.001Z,10.83
2019-03-28T18:20:41.606Z,10.97
2019-03-28T18:23:11.030Z,13.20
2019-03-28T18:25:40.495Z,12.30
2019-03-28T18:28:09.990Z,10.07
2019-03-28T18:30:39.343Z,9.80
2019-03-28T18:33:08.801Z,12.60
2019-03-28T18:35:38.209Z,14.97
2019-03-28T18:38:07.671Z,9.23
2019-03-28T18:40:37.103Z,10.23
2019-03-28T18:43:06.521Z,12.10
2019-03-28T18:45:35.933Z,12.67
2019-03-28T18:48:08.699Z,11.13
2019-03-28T18:50:36.569Z,11.63
2019-03-28T18:53:05.996Z,12.43
2019-03-28T18:55:35.481Z,12.63
2019-03-28T18:58:05.645Z,11.27
2019-03-28T19:00:35.294Z,12.23
2019-03-28T19:03:04.828Z,11.83
2019-03-28T19:05:34.239Z,12.27
2019-03-28T19:08:03.676Z,16.40
2019-03-28T19:10:33.092Z,11.50
2019-03-28T19:13:04.762Z,11.87
2019-03-28T19:15:33.641Z,13.90
2019-03-28T19:18:03.189Z,14.23
2019-03-28T19:20:33.358Z,12.47
2019-03-28T19:23:02.922Z,14.03
2019-03-28T19:25:35.110Z,13.70
2019-03-28T19:28:07.491Z,12.87
2019-03-28T19:30:35.977Z,13.77
2019-03-28T19:33:06.955Z,14.67
2019-03-28T19:35:38.223Z,15.53
2019-03-28T19:38:09.353Z,12.53
2019-03-28T19:40:39.026Z,12.63
2019-03-28T19:43:19.785Z,11.10
2019-03-28T19:45:40.008Z,14.20
2019-03-28T19:48:09.992Z,14.00
2019-03-28T19:50:41.807Z,13.37
2019-03-28T19:53:12.108Z,11.87
2019-03-28T19:55:41.542Z,11.40
2019-03-28T19:58:13.523Z,10.27
2019-03-28T20:00:42.421Z,10.73
2019-03-28T20:03:11.856Z,11.40
2019-03-28T20:05:47.389Z,10.63
2019-03-28T20:08:16.097Z,11.37
2019-03-28T20:10:44.877Z,9.53
2019-03-28T20:13:14.529Z,11.80
2019-03-28T20:15:44.098Z,8.87
2019-03-28T20:18:13.696Z,9.47
2019-03-28T20:20:43.194Z,8.80
2019-03-28T20:23:12.616Z,9.17
2019-03-28T20:25:42.922Z,9.17
2019-03-28T20:28:14.430Z,9.40
2019-03-28T20:30:43.544Z,9.07
2019-03-28T20:33:13.057Z,10.07
2019-03-28T20:35:42.457Z,8.07
2019-03-28T20:38:11.911Z,9.30
2019-03-28T20:40:43.367Z,9.10
2019-03-28T20:43:12.521Z,9.43
2019-03-28T20:45:41.965Z,8.77
2019-03-28T20:48:11.392Z,9.77
2019-03-28T20:50:40.806Z,9.23
2019-03-28T20:53:10.308Z,7.93
2019-03-28T20:55:39.708Z,9.70
2019-03-28T20:58:09.143Z,8.37
2019-03-28T21:00:46.303Z,11.00
2019-03-28T21:03:16.662Z,9.53
2019-03-28T21:05:46.342Z,10.03
2019-03-28T21:08:15.758Z,9.87
2019-03-28T21:10:45.171Z,8.47
2019-03-28T21:13:14.809Z,7.00
2019-03-28T21:15:44.287Z,7.67
2019-03-28T21:18:13.722Z,8.10
2019-03-28T21:20:43.195Z,8.83
2019-03-28T21:23:12.964Z,10.57
2019-03-28T21:25:42.409Z,9.53
2019-03-28T21:28:13.801Z,8.53
2019-03-28T21:30:47.578Z,7.80
2019-03-28T21:33:15.134Z,8.80
2019-03-28T21:35:44.887Z,10.83
2019-03-28T21:38:14.321Z,9.03
2019-03-28T21:40:43.837Z,9.27
2019-03-28T21:43:13.270Z,10.47
2019-03-28T21:45:42.690Z,10.20
2019-03-28T21:48:12.127Z,11.13
2019-03-28T21:50:41.535Z,8.07
2019-03-28T21:53:11.043Z,9.07
2019-03-28T21:55:53.967Z,10.83
2019-03-28T21:58:11.567Z,9.03
2019-03-28T22:00:41.075Z,10.00
2019-03-28T22:03:10.517Z,8.83
2019-03-28T22:05:39.912Z,9.20
2019-03-28T22:08:09.329Z,9.80
2019-03-28T22:10:38.731Z,9.20
2019-03-28T22:13:08.224Z,9.60
2019-03-28T22:15:37.629Z,9.07
2019-03-28T22:18:07.763Z,9.43
2019-03-28T22:20:37.198Z,9.13
2019-03-28T22:23:06.648Z,7.33
2019-03-28T22:25:36.034Z,9.50
2019-03-28T22:28:05.622Z,12.57
2019-03-28T22:30:35.021Z,7.60
2019-03-28T22:33:04.424Z,8.73
2019-03-28T22:35:33.830Z,9.07
2019-03-28T22:38:03.409Z,11.57
2019-03-28T22:40:32.800Z,9.07
2019-03-28T22:43:02.225Z,9.80
2019-03-28T22:45:31.664Z,11.13
2019-03-28T22:48:10.499Z,9.53
2019-03-28T22:50:32.227Z,8.40
2019-03-28T22:53:01.631Z,8.73
2019-03-28T22:55:31.103Z,10.00
2019-03-28T22:58:00.523Z,9.67
2019-03-28T23:00:44.774Z,11.63
2019-03-28T23:03:16.490Z,12.60
2019-03-28T23:05:45.950Z,10.77
2019-03-28T23:08:15.381Z,12.57
2019-03-28T23:10:44.849Z,9.57
2019-03-28T23:13:14.261Z,10.13
2019-03-28T23:15:43.727Z,12.63
2019-03-28T23:18:13.614Z,9.40
2019-03-28T23:20:43.271Z,9.70
2019-03-28T23:23:12.674Z,9.37
2019-03-28T23:25:42.083Z,10.70
2019-03-28T23:28:11.512Z,12.00
2019-03-28T23:30:40.916Z,17.57
2019-03-28T23:33:10.485Z,12.03
2019-03-28T23:35:40.871Z,10.60
2019-03-28T23:38:10.379Z,10.40
2019-03-28T23:40:39.821Z,11.63
2019-03-28T23:43:09.832Z,10.27
2019-03-28T23:45:39.303Z,11.13
2019-03-28T23:48:08.896Z,11.37
2019-03-28T23:50:38.299Z,9.67
2019-03-28T23:53:08.778Z,12.30
2019-03-28T23:55:38.488Z,13.27
2019-03-28T23:58:07.905Z,11.47
